createdAt,value
2023-02-11T00:01:54.246Z,15.98
2023-02-11T00:04:21.449Z,17.38
2023-02-11T00:06:48.666Z,12.57
2023-02-11T00:09:15.875Z,10.13
2023-02-11T00:11:43.047Z,13.63
2023-02-11T00:14:11.108Z,11.98
2023-02-11T00:16:38.312Z,13.85
2023-02-11T00:19:06.605Z,15.07
2023-02-11T00:21:34.023Z,12.27
2023-02-11T00:24:02.229Z,15.50
2023-02-11T00:26:30.958Z,12.00
2023-02-11T00:28:58.312Z,12.70
2023-02-11T00:31:26.307Z,12.93
2023-02-11T00:33:54.073Z,11.32
2023-02-11T00:36:23.166Z,13.75
2023-02-11T00:38:50.638Z,10.75
2023-02-11T00:41:18.341Z,12.27
2023-02-11T00:43:45.882Z,13.67
2023-02-11T00:46:13.463Z,11.23
2023-02-11T00:48:41.000Z,9.25
2023-02-11T00:51:08.538Z,14.02
2023-02-11T00:53:36.145Z,10.07
2023-02-11T00:56:03.316Z,16.90
2023-02-11T00:58:30.662Z,13.90
2023-02-11T01:00:57.966Z,11.93
2023-02-11T01:03:25.353Z,10.43
2023-02-11T01:05:52.997Z,13.60
2023-02-11T01:08:20.690Z,15.33
2023-02-11T01:10:54.544Z,13.63
2023-02-11T01:13:21.871Z,17.00
2023-02-11T01:15:49.330Z,24.40
2023-02-11T01:18:16.718Z,8.68
2023-02-11T01:20:43.830Z,15.03
2023-02-11T01:23:11.262Z,12.73
2023-02-11T01:25:38.532Z,11.57
2023-02-11T01:28:05.801Z,12.45
2023-02-11T01:30:33.111Z,9.80
2023-02-11T01:33:00.280Z,17.10
2023-02-11T01:35:27.414Z,10.38
2023-02-11T01:37:55.090Z,11.40
2023-02-11T01:40:22.288Z,15.35
2023-02-11T01:42:51.022Z,14.30
2023-02-11T01:45:37.056Z,15.53
2023-02-11T01:48:04.206Z,10.00
2023-02-11T01:50:32.012Z,11.38
2023-02-11T01:53:19.271Z,13.63
2023-02-11T01:56:04.936Z,14.45
2023-02-11T01:58:33.425Z,12.03
2023-02-11T02:01:01.324Z,11.57
2023-02-11T02:03:28.709Z,11.70
2023-02-11T02:06:02.569Z,9.40
2023-02-11T02:08:48.198Z,15.02
2023-02-11T02:11:15.381Z,12.10
2023-02-11T02:13:42.546Z,13.82
2023-02-11T02:16:13.414Z,13.10
2023-02-11T02:18:40.572Z,16.27
2023-02-11T02:21:26.477Z,16.48
2023-02-11T02:23:53.650Z,15.00
2023-02-11T02:26:45.702Z,14.90
2023-02-11T02:29:12.834Z,16.73
2023-02-11T02:31:43.055Z,14.15
2023-02-11T02:34:12.521Z,14.27
2023-02-11T02:36:44.430Z,12.73
2023-02-11T02:39:13.895Z,14.90
2023-02-11T02:41:41.891Z,22.15
2023-02-11T02:44:09.335Z,10.57
2023-02-11T02:46:37.137Z,14.20
2023-02-11T02:49:04.360Z,17.10
2023-02-11T02:51:38.096Z,18.15
2023-02-11T02:54:23.961Z,12.30
2023-02-11T02:56:55.718Z,16.20
2023-02-11T02:59:47.256Z,17.27
2023-02-11T03:02:33.254Z,14.00
2023-02-11T03:05:00.390Z,14.43
2023-02-11T03:07:41.730Z,17.20
2023-02-11T03:10:10.933Z,15.48
2023-02-11T03:12:38.637Z,13.70
2023-02-11T03:15:06.566Z,17.93
2023-02-11T03:17:34.783Z,23.02
2023-02-11T03:20:02.599Z,17.45
2023-02-11T03:22:38.383Z,16.95
2023-02-11T03:25:05.901Z,12.40
2023-02-11T03:27:36.170Z,14.83
2023-02-11T03:30:11.486Z,15.40
2023-02-11T03:32:44.778Z,16.27
2023-02-11T03:35:11.931Z,16.67
2023-02-11T03:37:41.777Z,25.58
2023-02-11T03:40:08.926Z,19.77
2023-02-11T03:42:38.284Z,20.02
2023-02-11T03:45:06.865Z,25.15
2023-02-11T03:47:35.773Z,21.40
2023-02-11T03:50:04.442Z,16.73
2023-02-11T03:52:32.271Z,19.13
2023-02-11T03:55:00.889Z,18.75
2023-02-11T03:57:28.050Z,19.38
2023-02-11T03:59:56.539Z,18.50
2023-02-11T04:02:26.018Z,21.90
2023-02-11T04:04:53.239Z,21.37
2023-02-11T04:07:20.351Z,18.45
2023-02-11T04:09:47.449Z,20.60
2023-02-11T04:12:14.524Z,20.63
2023-02-11T04:14:41.705Z,16.73
2023-02-11T04:17:08.802Z,25.33
2023-02-11T04:19:36.042Z,22.77
2023-02-11T04:22:03.600Z,23.52
2023-02-11T04:24:30.765Z,29.88
2023-02-11T04:26:58.158Z,20.00
2023-02-11T04:29:25.414Z,23.17
2023-02-11T04:31:52.557Z,19.30
2023-02-11T04:34:19.737Z,24.95
2023-02-11T04:36:46.859Z,20.88
2023-02-11T04:39:13.982Z,22.45
2023-02-11T04:41:41.155Z,21.97
2023-02-11T04:44:08.399Z,18.90
2023-02-11T04:46:35.558Z,24.42
2023-02-11T04:49:02.874Z,23.85
2023-02-11T04:51:30.570Z,25.38
2023-02-11T04:53:57.717Z,20.70
2023-02-11T04:56:24.942Z,27.13
2023-02-11T04:58:52.253Z,22.92
2023-02-11T05:01:19.444Z,22.55
2023-02-11T05:03:46.606Z,24.95
2023-02-11T05:06:13.856Z,24.63
2023-02-11T05:08:41.033Z,22.40
2023-02-11T05:11:08.526Z,24.98
2023-02-11T05:13:35.697Z,21.70
2023-02-11T05:16:02.884Z,25.63
2023-02-11T05:18:30.005Z,22.47
2023-02-11T05:20:57.434Z,27.33
2023-02-11T05:23:24.596Z,21.38
2023-02-11T05:25:52.009Z,30.15
2023-02-11T05:28:19.333Z,30.38
2023-02-11T05:30:46.557Z,28.40
2023-02-11T05:33:13.679Z,24.83
2023-02-11T05:35:40.856Z,27.58
2023-02-11T05:38:08.033Z,21.90
2023-02-11T05:40:35.132Z,25.30
2023-02-11T05:43:02.310Z,25.43
2023-02-11T05:45:29.476Z,29.98
2023-02-11T05:47:56.996Z,26.33
2023-02-11T05:50:24.494Z,29.67
2023-02-11T05:52:51.682Z,26.42
2023-02-11T05:55:19.028Z,35.57
2023-02-11T05:57:46.147Z,25.63
2023-02-11T06:00:14.123Z,28.02
2023-02-11T06:02:41.385Z,26.60
2023-02-11T06:05:08.863Z,25.13
2023-02-11T06:07:36.089Z,27.70
2023-02-11T06:10:03.178Z,28.65
2023-02-11T06:12:30.336Z,25.90
2023-02-11T06:14:57.496Z,26.45
2023-02-11T06:17:25.427Z,26.15
2023-02-11T06:19:52.541Z,27.07
2023-02-11T06:22:19.674Z,30.92
2023-02-11T06:25:00.825Z,26.67
2023-02-11T06:27:29.110Z,30.65
2023-02-11T06:29:56.306Z,31.20
2023-02-11T06:32:43.358Z,28.93
2023-02-11T06:35:12.153Z,29.00
2023-02-11T06:37:39.781Z,28.85
2023-02-11T06:40:07.434Z,32.72
2023-02-11T06:42:36.072Z,29.80
2023-02-11T06:45:05.860Z,32.93
2023-02-11T06:47:33.038Z,35.05
2023-02-11T06:50:00.260Z,27.38
2023-02-11T06:52:27.369Z,27.67
2023-02-11T06:54:54.596Z,28.65
2023-02-11T06:57:21.908Z,30.30
2023-02-11T06:59:49.137Z,30.42
2023-02-11T07:02:17.984Z,36.35
2023-02-11T07:04:46.307Z,33.75
2023-02-11T07:07:13.480Z,33.40
2023-02-11T07:09:40.607Z,35.87
2023-02-11T07:12:07.799Z,37.25
2023-02-11T07:14:34.942Z,33.00
2023-02-11T07:17:04.025Z,35.08
2023-02-11T07:19:31.265Z,32.72
2023-02-11T07:21:58.437Z,29.63
2023-02-11T07:24:25.562Z,31.73
2023-02-11T07:26:53.710Z,39.85
2023-02-11T07:29:20.877Z,38.30
2023-02-11T07:31:48.194Z,31.25
2023-02-11T07:34:15.458Z,33.67
2023-02-11T07:36:43.753Z,32.25
2023-02-11T07:39:10.975Z,30.73
2023-02-11T07:41:38.921Z,30.63
2023-02-11T07:44:06.328Z,34.45
2023-02-11T07:46:35.597Z,29.63
2023-02-11T07:49:02.767Z,31.83
2023-02-11T07:51:31.122Z,37.42
2023-02-11T07:53:59.141Z,33.08
2023-02-11T07:56:26.623Z,32.90
2023-02-11T07:58:54.058Z,32.67
2023-02-11T08:01:28.174Z,28.90
2023-02-11T08:03:56.392Z,37.10
2023-02-11T08:06:24.597Z,31.80
2023-02-11T08:08:52.008Z,31.10
2023-02-11T08:11:21.269Z,28.43
2023-02-11T08:13:48.538Z,26.30
2023-02-11T08:16:23.610Z,31.80
2023-02-11T08:18:51.271Z,34.60
2023-02-11T08:21:19.024Z,28.92
2023-02-11T08:23:46.761Z,29.77
2023-02-11T08:26:21.117Z,30.27
2023-02-11T08:28:49.088Z,28.65
2023-02-11T08:31:18.133Z,37.22
2023-02-11T08:33:45.471Z,29.23
2023-02-11T08:36:16.717Z,27.03
2023-02-11T08:38:44.096Z,35.22
2023-02-11T08:41:11.335Z,34.67
2023-02-11T08:43:42.445Z,34.22
2023-02-11T08:46:10.521Z,32.83
2023-02-11T08:48:37.717Z,31.90
2023-02-11T08:51:08.873Z,32.67
2023-02-11T08:53:36.432Z,31.88
2023-02-11T08:56:03.662Z,30.00
2023-02-11T08:58:30.828Z,30.58
2023-02-11T09:00:58.049Z,26.97
2023-02-11T09:03:25.397Z,27.75
2023-02-11T09:05:53.524Z,35.80
2023-02-11T09:08:21.447Z,29.90
2023-02-11T09:10:48.991Z,31.80
2023-02-11T09:13:16.936Z,31.30
2023-02-11T09:15:47.270Z,31.17
2023-02-11T09:18:14.721Z,32.53
2023-02-11T09:20:41.897Z,27.60
2023-02-11T09:23:09.106Z,30.40
2023-02-11T09:25:36.536Z,30.03
2023-02-11T09:28:03.746Z,31.13
2023-02-11T09:30:31.015Z,34.42
2023-02-11T09:32:58.238Z,33.20
2023-02-11T09:35:25.485Z,28.02
2023-02-11T09:37:52.643Z,28.43
2023-02-11T09:40:20.211Z,30.15
2023-02-11T09:43:10.692Z,27.45
2023-02-11T09:45:38.141Z,30.83
2023-02-11T09:48:08.345Z,31.73
2023-02-11T09:50:47.248Z,30.67
2023-02-11T09:53:53.669Z,30.45
2023-02-11T09:56:20.885Z,28.45
2023-02-11T09:58:48.048Z,28.80
2023-02-11T10:01:33.960Z,29.45
2023-02-11T10:04:01.140Z,25.47
2023-02-11T10:06:33.259Z,27.92
2023-02-11T10:09:05.716Z,33.15
2023-02-11T10:11:47.731Z,29.20
2023-02-11T10:14:14.829Z,33.55
2023-02-11T10:16:57.302Z,29.47
2023-02-11T10:19:32.443Z,27.38
2023-02-11T10:22:06.283Z,29.67
2023-02-11T10:24:34.302Z,27.13
2023-02-11T10:27:02.393Z,26.73
2023-02-11T10:29:32.578Z,25.57
2023-02-11T10:32:01.301Z,27.85
2023-02-11T10:34:28.541Z,25.85
2023-02-11T10:36:55.737Z,27.08
2023-02-11T10:39:24.416Z,26.15
2023-02-11T10:41:54.128Z,26.63
2023-02-11T10:44:28.490Z,27.00
2023-02-11T10:46:56.311Z,24.60
2023-02-11T10:49:38.934Z,23.20
2023-02-11T10:52:18.318Z,23.70
2023-02-11T10:55:00.946Z,21.87
2023-02-11T10:57:38.883Z,25.98
2023-02-11T11:00:21.622Z,24.40
2023-02-11T11:02:53.814Z,24.40
2023-02-11T11:05:24.367Z,26.30
2023-02-11T11:07:57.028Z,22.97
2023-02-11T11:10:35.562Z,20.10
2023-02-11T11:13:02.818Z,22.33
2023-02-11T11:15:31.300Z,23.17
2023-02-11T11:18:21.227Z,22.45
2023-02-11T11:21:15.826Z,21.37
2023-02-11T11:23:48.271Z,21.55
2023-02-11T11:26:16.462Z,23.25
2023-02-11T11:28:51.994Z,18.98
2023-02-11T11:31:36.405Z,17.45
2023-02-11T11:34:19.736Z,21.17
2023-02-11T11:36:47.005Z,19.63
2023-02-11T11:39:24.877Z,19.30
2023-02-11T11:42:02.301Z,20.92
2023-02-11T11:44:33.924Z,18.58
2023-02-11T11:47:13.555Z,15.77
2023-02-11T11:49:48.653Z,21.67
2023-02-11T11:52:21.849Z,17.45
2023-02-11T11:54:54.317Z,21.85
2023-02-11T11:57:27.168Z,19.00
2023-02-11T11:59:54.428Z,18.67
2023-02-11T12:02:33.367Z,18.70
2023-02-11T12:05:12.676Z,18.83
2023-02-11T12:07:52.205Z,18.25
2023-02-11T12:10:38.205Z,22.25
2023-02-11T12:13:18.357Z,18.97
2023-02-11T12:15:54.624Z,20.05
2023-02-11T12:18:38.769Z,17.10
2023-02-11T12:21:17.224Z,20.42
2023-02-11T12:24:02.761Z,18.42
2023-02-11T12:26:41.282Z,20.30
2023-02-11T12:29:27.309Z,18.73
2023-02-11T12:32:13.117Z,20.10
2023-02-11T12:34:59.101Z,19.48
2023-02-11T12:37:29.286Z,19.70
2023-02-11T12:40:02.636Z,20.70
2023-02-11T12:42:58.347Z,18.02
2023-02-11T12:45:48.475Z,18.10
2023-02-11T12:48:15.885Z,18.95
2023-02-11T12:51:01.494Z,20.60
2023-02-11T12:53:39.653Z,33.63
2023-02-11T12:56:17.220Z,18.27
2023-02-11T12:58:50.968Z,18.35
2023-02-11T13:01:21.633Z,21.48
2023-02-11T13:04:15.330Z,16.98
2023-02-11T13:06:45.348Z,17.23
2023-02-11T13:09:21.135Z,19.75
2023-02-11T13:11:54.869Z,10.63
2023-02-11T13:14:54.120Z,10.52
2023-02-11T13:17:37.616Z,10.48
2023-02-11T13:20:19.510Z,15.57
2023-02-11T13:23:03.081Z,12.07
2023-02-11T13:25:58.037Z,17.20
2023-02-11T13:31:32.552Z,18.02
2023-02-11T13:33:59.810Z,13.57
2023-02-11T13:36:27.867Z,10.82
2023-02-11T13:38:56.960Z,8.50
2023-02-11T13:41:27.356Z,11.48
2023-02-11T13:43:58.936Z,10.95
2023-02-11T13:46:29.223Z,10.17
2023-02-11T13:48:56.627Z,11.93
2023-02-11T13:51:38.246Z,10.32
2023-02-11T13:54:06.378Z,9.68
2023-02-11T13:56:33.583Z,8.18
2023-02-11T13:59:05.505Z,9.90
2023-02-11T14:01:44.814Z,9.13
2023-02-11T14:04:42.432Z,9.77
2023-02-11T14:07:44.848Z,9.75
2023-02-11T14:10:35.343Z,9.65
2023-02-11T14:13:06.427Z,8.67
2023-02-11T14:15:40.408Z,10.48
2023-02-11T14:18:43.093Z,10.80
2023-02-11T14:21:30.984Z,10.02
2023-02-11T14:24:04.966Z,10.55
2023-02-11T14:26:36.009Z,11.50
2023-02-11T14:29:03.128Z,10.20
2023-02-11T14:31:36.848Z,7.53
2023-02-11T14:34:19.989Z,8.23
2023-02-11T14:36:53.794Z,9.00
2023-02-11T14:39:26.038Z,9.77
2023-02-11T14:41:53.520Z,9.00
2023-02-11T14:44:25.276Z,10.90
2023-02-11T14:46:53.438Z,10.40
2023-02-11T14:49:30.500Z,9.52
2023-02-11T14:52:00.614Z,9.30
2023-02-11T14:54:28.683Z,10.50
2023-02-11T14:57:10.090Z,10.23
2023-02-11T14:59:37.544Z,11.25
2023-02-11T15:02:14.914Z,9.32
2023-02-11T15:04:42.156Z,8.87
2023-02-11T15:07:11.948Z,9.40
2023-02-11T15:09:39.124Z,7.78
2023-02-11T15:12:13.635Z,11.07
2023-02-11T15:14:41.639Z,12.50
2023-02-11T15:17:09.845Z,9.87
2023-02-11T15:19:39.041Z,13.25
2023-02-11T15:22:08.000Z,10.23
2023-02-11T15:27:50.661Z,9.82
2023-02-11T15:30:24.272Z,10.50
2023-02-11T15:33:03.311Z,9.70
2023-02-11T15:35:32.741Z,10.45
2023-02-11T15:38:00.431Z,8.60
2023-02-11T15:40:29.882Z,10.40
2023-02-11T15:43:07.345Z,10.97
2023-02-11T15:45:36.107Z,9.88
2023-02-11T15:48:08.045Z,9.82
2023-02-11T15:50:37.162Z,10.15
2023-02-11T15:53:26.118Z,10.73
2023-02-11T15:55:54.676Z,10.07
2023-02-11T15:58:22.650Z,9.02
2023-02-11T16:00:52.171Z,10.07
2023-02-11T16:03:24.113Z,8.80
2023-02-11T16:05:51.616Z,9.63
2023-02-11T16:08:29.971Z,9.93
2023-02-11T16:11:03.500Z,12.30
2023-02-11T16:13:34.884Z,11.48
2023-02-11T16:16:04.614Z,9.00
2023-02-11T16:18:38.371Z,9.15
2023-02-11T16:21:08.509Z,8.17
2023-02-11T16:23:38.072Z,9.48
2023-02-11T16:26:09.023Z,9.95
2023-02-11T16:28:37.473Z,10.32
2023-02-11T16:31:06.783Z,9.88
2023-02-11T16:33:34.235Z,8.87
2023-02-11T16:36:02.219Z,16.52
2023-02-11T16:38:30.501Z,10.73
2023-02-11T16:40:57.707Z,9.40
2023-02-11T16:43:24.889Z,10.85
2023-02-11T16:45:52.511Z,12.13
2023-02-11T16:48:21.117Z,11.70
2023-02-11T16:50:53.143Z,10.43
2023-02-11T16:53:22.927Z,8.98
2023-02-11T16:55:50.303Z,9.95
2023-02-11T16:58:17.555Z,13.23
2023-02-11T17:00:45.182Z,11.55
2023-02-11T17:03:17.367Z,11.05
2023-02-11T17:05:58.216Z,11.02
2023-02-11T17:08:25.613Z,12.00
2023-02-11T17:10:53.160Z,10.20
2023-02-11T17:13:20.473Z,11.13
2023-02-11T17:15:47.718Z,11.05
2023-02-11T17:18:14.969Z,9.60
2023-02-11T17:20:42.569Z,11.75
2023-02-11T17:23:10.293Z,12.13
2023-02-11T17:25:37.614Z,13.45
2023-02-11T17:28:08.921Z,11.98
2023-02-11T17:30:36.254Z,13.40
2023-02-11T17:33:03.565Z,14.80
2023-02-11T17:35:30.737Z,14.50
2023-02-11T17:37:58.673Z,13.10
2023-02-11T17:40:26.364Z,16.40
2023-02-11T17:42:53.498Z,26.55
2023-02-11T17:45:22.352Z,15.48
2023-02-11T17:47:49.840Z,29.53
2023-02-11T17:50:16.992Z,42.72
2023-02-11T17:52:44.180Z,17.30
2023-02-11T17:55:11.369Z,19.55
2023-02-11T17:57:38.590Z,14.25
2023-02-11T18:00:06.460Z,12.43
2023-02-11T18:02:33.626Z,15.38
2023-02-11T18:05:00.850Z,15.00
2023-02-11T18:07:28.158Z,12.63
2023-02-11T18:09:55.308Z,13.18
2023-02-11T18:12:26.084Z,10.83
2023-02-11T18:14:57.481Z,14.23
2023-02-11T18:17:25.175Z,16.17
2023-02-11T18:19:55.712Z,16.67
2023-02-11T18:22:23.122Z,14.02
2023-02-11T18:24:54.069Z,14.03
2023-02-11T18:27:21.756Z,17.42
2023-02-11T18:29:49.166Z,13.70
2023-02-11T18:32:16.302Z,19.08
2023-02-11T18:34:43.766Z,22.02
2023-02-11T18:37:13.202Z,17.67
2023-02-11T18:39:40.547Z,16.30
2023-02-11T18:42:07.721Z,19.60
2023-02-11T18:44:34.991Z,14.82
2023-02-11T18:47:02.203Z,15.13
2023-02-11T18:49:29.363Z,14.33
2023-02-11T18:51:58.677Z,12.77
2023-02-11T18:54:26.087Z,12.98
2023-02-11T18:56:53.268Z,14.73
2023-02-11T18:59:20.420Z,13.88
2023-02-11T19:01:47.646Z,14.30
2023-02-11T19:04:19.688Z,16.58
2023-02-11T19:06:48.862Z,17.42
2023-02-11T19:09:16.974Z,15.02
2023-02-11T19:11:47.104Z,13.90
2023-02-11T19:14:15.313Z,15.53
2023-02-11T19:16:43.888Z,13.93
2023-02-11T19:19:11.142Z,14.25
2023-02-11T19:21:38.466Z,14.95
2023-02-11T19:24:09.275Z,13.20
2023-02-11T19:26:36.854Z,14.00
2023-02-11T19:29:04.598Z,17.08
2023-02-11T19:31:32.384Z,15.13
2023-02-11T19:34:00.089Z,14.15
2023-02-11T19:36:27.303Z,15.93
2023-02-11T19:38:54.569Z,14.37
2023-02-11T19:41:24.546Z,15.23
2023-02-11T19:43:52.915Z,16.95
2023-02-11T19:46:21.307Z,14.10
2023-02-11T19:48:49.125Z,14.85
2023-02-11T19:51:16.665Z,16.53
2023-02-11T19:53:44.131Z,16.35
2023-02-11T19:56:12.637Z,15.85
2023-02-11T19:58:39.962Z,14.98
2023-02-11T20:01:18.378Z,13.80
2023-02-11T20:03:47.300Z,18.27
2023-02-11T20:06:17.065Z,15.63
2023-02-11T20:08:44.439Z,15.18
2023-02-11T20:11:13.681Z,15.95
2023-02-11T20:13:41.113Z,18.60
2023-02-11T20:16:09.708Z,17.93
2023-02-11T20:18:37.414Z,22.05
2023-02-11T20:21:08.682Z,18.35
2023-02-11T20:23:36.382Z,17.48
2023-02-11T20:26:23.507Z,16.83
2023-02-11T20:28:51.397Z,17.93
2023-02-11T20:31:19.116Z,17.08
2023-02-11T20:33:46.817Z,16.17
2023-02-11T20:36:15.822Z,16.55
2023-02-11T20:38:43.567Z,16.52
2023-02-11T20:41:16.563Z,15.47
2023-02-11T20:43:47.942Z,15.20
2023-02-11T20:46:16.230Z,19.88
2023-02-11T20:48:43.557Z,22.70
2023-02-11T20:51:12.067Z,18.08
2023-02-11T20:53:40.450Z,16.20
2023-02-11T20:56:09.472Z,15.40
2023-02-11T20:58:36.736Z,20.08
2023-02-11T21:01:08.105Z,16.40
2023-02-11T21:03:35.316Z,17.33
2023-02-11T21:06:02.824Z,14.50
2023-02-11T21:08:30.020Z,16.40
2023-02-11T21:10:57.405Z,16.98
2023-02-11T21:13:24.600Z,17.98
2023-02-11T21:15:55.904Z,17.65
2023-02-11T21:18:24.192Z,16.57
2023-02-11T21:20:51.402Z,16.17
2023-02-11T21:23:18.580Z,16.35
2023-02-11T21:25:45.769Z,14.75
2023-02-11T21:28:13.317Z,16.33
2023-02-11T21:30:41.144Z,16.73
2023-02-11T21:33:08.531Z,15.10
2023-02-11T21:35:36.306Z,17.83
2023-02-11T21:38:04.036Z,16.17
2023-02-11T21:40:31.184Z,15.50
2023-02-11T21:42:58.478Z,17.43
2023-02-11T21:45:26.010Z,14.98
2023-02-11T21:47:53.234Z,16.95
2023-02-11T21:50:20.655Z,14.02
2023-02-11T21:52:47.895Z,14.95
2023-02-11T21:55:15.196Z,18.70
2023-02-11T21:57:42.449Z,17.67
2023-02-11T22:00:10.430Z,24.38
2023-02-11T22:02:42.292Z,19.42
2023-02-11T22:05:09.498Z,18.27
2023-02-11T22:07:36.971Z,14.93
2023-02-11T22:10:04.473Z,16.27
2023-02-11T22:12:31.766Z,19.70
2023-02-11T22:14:58.900Z,16.23
2023-02-11T22:17:26.102Z,19.20
2023-02-11T22:19:53.341Z,14.97
2023-02-11T22:22:21.208Z,18.38
2023-02-11T22:24:48.413Z,17.17
2023-02-11T22:27:18.511Z,18.83
2023-02-11T22:29:47.255Z,17.23
2023-02-11T22:32:14.472Z,16.47
2023-02-11T22:34:41.657Z,16.10
2023-02-11T22:37:08.861Z,19.23
2023-02-11T22:39:36.142Z,18.38
2023-02-11T22:42:03.310Z,15.88
2023-02-11T22:44:30.449Z,19.37
2023-02-11T22:46:57.613Z,17.40
2023-02-11T22:49:25.077Z,21.67
2023-02-11T22:51:52.250Z,17.60
2023-02-11T22:54:19.843Z,17.17
2023-02-11T22:56:50.606Z,16.87
2023-02-11T22:59:17.829Z,16.55
2023-02-11T23:01:45.524Z,16.42
2023-02-11T23:04:13.778Z,19.25
2023-02-11T23:06:41.110Z,16.85
2023-02-11T23:09:09.313Z,19.67
2023-02-11T23:11:36.807Z,19.98
2023-02-11T23:14:04.091Z,19.48
2023-02-11T23:16:32.934Z,21.52
2023-02-11T23:19:01.439Z,20.90
2023-02-11T23:21:30.268Z,19.47
2023-02-11T23:23:58.906Z,21.17
2023-02-11T23:26:26.367Z,21.20
2023-02-11T23:28:53.565Z,24.35
2023-02-11T23:31:25.869Z,19.33
2023-02-11T23:33:53.354Z,19.83
2023-02-11T23:36:21.042Z,20.92
2023-02-11T23:38:48.580Z,20.35
2023-02-11T23:41:15.985Z,19.15
2023-02-11T23:43:43.359Z,20.38
2023-02-11T23:46:11.026Z,21.63
2023-02-11T23:48:40.506Z,18.45
2023-02-11T23:51:09.879Z,24.40
2023-02-11T23:53:40.585Z,19.17
2023-02-11T23:56:09.206Z,21.25
2023-02-11T23:58:37.772Z,21.77
